Time;durP1;ratioP1;P1;durP2;ratioP2;P2;SDS_P1;SDS_P2;PMS_P1;PMS_P2;Temp;Humidity;BMP_temperature;BMP_pressure;BME280_temperature;BME280_humidity;BME280_pressure;Samples;Min_cycle;Max_cycle;Signal;HPM_P1;HPM_P2
2021/01/22 00:01:17;;;;;;;;;;;;;;;20.84;34.80;98500.06;3100041;27;114289;-57
2021/01/22 00:02:51;;;;;;;;;;;;;;;20.83;34.88;98508.84;3111046;27;114355;-56
2021/01/22 00:04:24;;;;;;;;;;;;;;;20.82;34.89;98504.41;3105574;27;114778;-56
2021/01/22 00:05:56;;;;;;;;;;;;;;;20.79;34.97;98510.78;3111811;27;116207;-57
2021/01/22 00:07:27;;;;;;;;;;;;;;;20.79;34.96;98520.00;3109846;28;114014;-56
2021/01/22 00:08:58;;;;;;;;;;;;;;;20.76;35.15;98505.88;3095206;28;114519;-56
2021/01/22 00:10:29;;;;;;;;;;;;;;;20.73;34.95;98518.66;3101414;28;114857;-56
2021/01/22 00:12:00;;;;;;;;;;;;;;;20.74;35.12;98513.88;3100601;28;114046;-57
2021/01/22 00:13:32;;;;;;;;;;;;;;;20.70;35.30;98516.59;3099608;28;114444;-56
2021/01/22 00:15:04;;;;;;;;;;;;;;;20.69;35.21;98514.97;3108166;28;113995;-57
2021/01/22 00:16:36;;;;;;;;;;;;;;;20.66;35.18;98531.75;3109765;27;114052;-56
2021/01/22 00:18:07;;;;;;;;;;;;;;;20.64;35.39;98523.69;3104604;28;115269;-57
2021/01/22 00:19:38;;;;;;;;;;;;;;;20.62;35.28;98520.44;3109230;28;114898;-56
2021/01/22 00:21:10;;;;;;;;;;;;;;;20.62;35.36;98525.25;3099079;28;115011;-57
2021/01/22 00:22:41;;;;;;;;;;;;;;;20.62;35.49;98533.66;3102542;28;114671;-55
2021/01/22 00:24:13;;;;;;;;;;;;;;;20.62;35.42;98528.06;3107019;27;115330;-57
2021/01/22 00:25:44;;;;;;;;;;;;;;;20.59;35.59;98525.97;3107860;27;114174;-58
2021/01/22 00:27:15;;;;;;;;;;;;;;;20.60;35.54;98525.59;3104321;28;115283;-68
2021/01/22 00:28:46;;;;;;;;;;;;;;;20.58;36.02;98527.16;3105360;27;116002;-62
2021/01/22 00:30:17;;;;;;;;;;;;;;;20.58;36.21;98530.75;3108336;28;114247;-62
2021/01/22 00:31:49;;;;;;;;;;;;;;;20.60;35.91;98530.41;3108099;28;115295;-56
2021/01/22 00:33:20;;;;;;;;;;;;;;;20.57;36.31;98529.16;3108204;28;115328;-63
2021/01/22 00:34:51;;;;;;;;;;;;;;;20.53;36.74;98533.88;3108146;27;115224;-57
2021/01/22 00:36:23;;;;;;;;;;;;;;;20.52;36.75;98531.44;3107508;28;116055;-58
2021/01/22 00:37:54;;;;;;;;;;;;;;;20.50;36.74;98533.78;3112838;28;114173;-56
2021/01/22 00:39:25;;;;;;;;;;;;;;;20.47;36.85;98531.72;3106384;28;115089;-56
2021/01/22 00:40:56;;;;;;;;;;;;;;;20.46;36.81;98542.13;3110031;28;116426;-56
2021/01/22 00:42:28;;;;;;;;;;;;;;;20.44;36.99;98538.88;3094822;28;115257;-56
2021/01/22 00:43:59;;;;;;;;;;;;;;;20.42;36.73;98541.22;3100000;28;115923;-56
2021/01/22 00:45:32;;;;;;;;;;;;;;;20.41;36.85;98536.78;3093037;28;115851;-55
2021/01/22 00:47:03;;;;;;;;;;;;;;;20.38;36.82;98555.19;3100448;28;115294;-56
2021/01/22 00:48:35;;;;;;;;;;;;;;;20.37;37.06;98549.91;3099584;27;114750;-60
2021/01/22 00:50:06;;;;;;;;;;;;;;;20.34;36.88;98539.44;3097684;28;114788;-62
2021/01/22 00:51:38;;;;;;;;;;;;;;;20.33;36.90;98546.22;3100829;27;115392;-62
2021/01/22 00:53:10;;;;;;;;;;;;;;;20.31;37.14;98545.75;3106762;28;114735;-61
2021/01/22 00:54:42;;;;;;;;;;;;;;;20.27;37.48;98545.66;3100281;28;116453;-61
2021/01/22 00:56:16;;;;;;;;;;;;;;;20.25;37.02;98556.44;3106839;28;115960;-62
2021/01/22 00:57:48;;;;;;;;;;;;;;;20.23;37.33;98552.34;3088592;28;115809;-61
2021/01/22 00:59:20;;;;;;;;;;;;;;;20.21;37.18;98561.16;3091673;28;115807;-62
2021/01/22 01:00:51;;;;;;;;;;;;;;;20.21;37.29;98557.53;3094887;28;113927;-62
2021/01/22 01:02:37;;;;;;;;;;;;;;;20.19;37.51;98562.69;3100088;27;114408;-61
2021/01/22 01:04:09;;;;;;;;;;;;;;;20.18;37.65;98563.84;3094497;28;114843;-62
2021/01/22 01:05:40;;;;;;;;;;;;;;;20.17;37.39;98574.25;3100049;28;114161;-57
2021/01/22 01:07:11;;;;;;;;;;;;;;;20.17;37.35;98571.44;3087832;28;114270;-56
2021/01/22 01:08:42;;;;;;;;;;;;;;;20.17;37.47;98573.47;3092355;28;115324;-57
2021/01/22 01:10:14;;;;;;;;;;;;;;;20.15;37.29;98579.44;3098074;28;114362;-55
2021/01/22 01:11:45;;;;;;;;;;;;;;;20.14;37.54;98576.97;3105847;28;114033;-58
2021/01/22 01:13:16;;;;;;;;;;;;;;;20.13;37.53;98573.34;3105427;28;114265;-57
2021/01/22 01:14:47;;;;;;;;;;;;;;;20.12;37.16;98576.53;3107819;27;114357;-57
2021/01/22 01:16:19;;;;;;;;;;;;;;;20.10;37.24;98579.69;3109263;28;114229;-57
2021/01/22 01:17:50;;;;;;;;;;;;;;;20.09;37.19;98578.06;3095593;28;115017;-56
2021/01/22 01:19:21;;;;;;;;;;;;;;;20.06;37.34;98576.00;3101075;28;114631;-57
2021/01/22 01:20:53;;;;;;;;;;;;;;;20.05;37.37;98579.97;3106237;27;114729;-57
2021/01/22 01:22:24;;;;;;;;;;;;;;;20.04;37.58;98585.94;3100415;28;114297;-56
2021/01/22 01:23:57;;;;;;;;;;;;;;;20.01;37.30;98581.88;3101573;27;114675;-56
2021/01/22 01:25:28;;;;;;;;;;;;;;;20.00;37.62;98583.03;3102552;27;114334;-56
2021/01/22 01:27:00;;;;;;;;;;;;;;;19.99;37.68;98581.41;3090586;28;115327;-56
2021/01/22 01:28:32;;;;;;;;;;;;;;;19.97;37.54;98583.78;3103625;27;115326;-56
2021/01/22 01:30:04;;;;;;;;;;;;;;;19.93;37.60;98586.50;3092977;28;115341;-57
2021/01/22 01:31:36;;;;;;;;;;;;;;;19.91;37.67;98586.03;3104612;28;115156;-56
2021/01/22 01:33:07;;;;;;;;;;;;;;;19.89;37.62;98579.19;3095584;28;114660;-56
2021/01/22 01:34:38;;;;;;;;;;;;;;;19.89;37.76;98581.97;3101566;28;115325;-55
2021/01/22 01:36:10;;;;;;;;;;;;;;;19.86;37.71;98583.50;3106785;27;115414;-56
2021/01/22 01:37:44;;;;;;;;;;;;;;;19.84;37.64;98594.28;3107921;28;115279;-55
2021/01/22 01:39:16;;;;;;;;;;;;;;;19.83;37.68;98595.44;3106388;28;114439;-56
2021/01/22 01:40:47;;;;;;;;;;;;;;;19.80;37.71;98590.56;3094668;28;114839;-56
2021/01/22 01:42:18;;;;;;;;;;;;;;;19.78;37.76;98600.50;3087660;28;115543;-55
2021/01/22 01:43:49;;;;;;;;;;;;;;;19.77;37.77;98593.25;3103304;28;114879;-56
2021/01/22 01:45:21;;;;;;;;;;;;;;;19.75;37.98;98596.44;3103609;27;115719;-56
2021/01/22 01:46:52;;;;;;;;;;;;;;;19.75;38.08;98604.03;3103089;27;115838;-55
2021/01/22 01:48:23;;;;;;;;;;;;;;;19.72;38.17;98599.94;3102017;27;116553;-56
2021/01/22 01:50:02;;;;;;;;;;;;;;;19.71;38.06;98606.75;3103472;28;115849;-56
2021/01/22 01:51:39;;;;;;;;;;;;;;;19.69;37.97;98602.66;3107069;28;115861;-56
2021/01/22 01:53:24;;;;;;;;;;;;;;;19.68;38.11;98601.84;3106112;28;115258;-56
2021/01/22 01:54:57;;;;;;;;;;;;;;;19.67;38.03;98603.00;3097217;28;116072;-56
2021/01/22 01:56:29;;;;;;;;;;;;;;;19.65;38.13;98607.34;3104145;27;114562;-56
2021/01/22 01:58:01;;;;;;;;;;;;;;;19.62;38.02;98608.09;3106352;28;114859;-56
2021/01/22 01:59:34;;;;;;;;;;;;;;;19.60;38.21;98602.81;3108093;27;116160;-56
2021/01/22 02:01:07;;;;;;;;;;;;;;;19.58;38.45;98605.16;3109009;27;115264;-56
2021/01/22 02:02:38;;;;;;;;;;;;;;;19.58;38.08;98607.19;3109295;27;115257;-56
2021/01/22 02:04:10;;;;;;;;;;;;;;;19.57;38.10;98613.94;3102242;27;116030;-55
2021/01/22 02:05:42;;;;;;;;;;;;;;;19.54;38.39;98609.84;3092851;28;116385;-56
2021/01/22 02:07:13;;;;;;;;;;;;;;;19.52;38.39;98617.81;3100599;28;114399;-61
2021/01/22 02:08:44;;;;;;;;;;;;;;;19.50;38.40;98623.78;3099841;27;113976;-60
2021/01/22 02:10:16;;;;;;;;;;;;;;;19.49;38.54;98627.72;3103794;28;114399;-60
2021/01/22 02:11:47;;;;;;;;;;;;;;;19.47;38.74;98629.28;3092964;28;114492;-61
2021/01/22 02:13:19;;;;;;;;;;;;;;;19.46;38.52;98630.44;3104812;28;114335;-60
2021/01/22 02:14:51;;;;;;;;;;;;;;;19.45;38.42;98635.22;3096820;28;114790;-60
2021/01/22 02:16:23;;;;;;;;;;;;;;;19.43;38.40;98642.34;3108928;28;113859;-61
2021/01/22 02:17:56;;;;;;;;;;;;;;;19.42;38.48;98635.09;3095767;28;113932;-60
2021/01/22 02:19:48;;;;;;;;;;;;;;;19.40;38.76;98640.22;3096048;27;114318;-60
2021/01/22 02:21:32;;;;;;;;;;;;;;;19.40;38.46;98652.25;3097363;28;114021;-55
2021/01/22 02:23:03;;;;;;;;;;;;;;;19.39;38.50;98652.63;3097626;28;114681;-56
2021/01/22 02:24:36;;;;;;;;;;;;;;;19.37;38.64;98644.56;3106974;28;114749;-56
2021/01/22 02:26:27;;;;;;;;;;;;;;;19.37;38.50;98646.56;3108654;27;114194;-56
2021/01/22 02:27:58;;;;;;;;;;;;;;;19.35;38.50;98651.72;3061563;28;115920;-56
2021/01/22 02:29:31;;;;;;;;;;;;;;;19.35;38.60;98651.72;3109106;28;115081;-56
2021/01/22 02:31:02;;;;;;;;;;;;;;;19.34;38.39;98652.88;3100011;27;115056;-56
2021/01/22 02:32:34;;;;;;;;;;;;;;;19.33;38.77;98659.63;3103745;28;115391;-56
2021/01/22 02:34:07;;;;;;;;;;;;;;;19.31;38.66;98656.38;3108127;27;115228;-56
2021/01/22 02:35:42;;;;;;;;;;;;;;;19.29;38.91;98655.94;3101267;27;117206;-55
2021/01/22 02:37:16;;;;;;;;;;;;;;;19.30;38.74;98671.56;3096911;28;115313;-56
2021/01/22 02:38:48;;;;;;;;;;;;;;;19.29;38.72;98667.13;3098192;27;114160;-56
2021/01/22 02:40:20;;;;;;;;;;;;;;;19.26;38.71;98671.44;3086915;28;115373;-56
2021/01/22 02:41:54;;;;;;;;;;;;;;;19.25;38.81;98669.00;3101824;28;114601;-55
2021/01/22 02:43:27;;;;;;;;;;;;;;;19.22;38.93;98664.91;3096151;27;115337;-56
2021/01/22 02:44:58;;;;;;;;;;;;;;;19.21;38.79;98663.31;3096858;28;115162;-56
2021/01/22 02:46:30;;;;;;;;;;;;;;;19.22;38.82;98662.13;3109672;28;114251;-56
2021/01/22 02:48:02;;;;;;;;;;;;;;;19.20;38.84;98661.69;3106660;28;115304;-56
2021/01/22 02:49:34;;;;;;;;;;;;;;;19.19;39.04;98660.03;3109804;28;114738;-57
2021/01/22 02:51:09;;;;;;;;;;;;;;;19.19;38.84;98664.81;3100573;28;114603;-56
2021/01/22 02:52:40;;;;;;;;;;;;;;;19.18;39.03;98665.97;3105649;27;115356;-56
2021/01/22 02:54:11;;;;;;;;;;;;;;;19.16;39.04;98663.56;3103021;28;115186;-57
2021/01/22 02:55:43;;;;;;;;;;;;;;;19.17;38.99;98661.59;3091443;28;115665;-57
2021/01/22 02:57:23;;;;;;;;;;;;;;;19.16;39.05;98666.38;3094782;28;115709;-57
2021/01/22 02:59:06;;;;;;;;;;;;;;;19.15;39.28;98666.72;3096786;28;114925;-57
2021/01/22 03:00:40;;;;;;;;;;;;;;;19.14;39.16;98665.06;3103536;28;114920;-56
2021/01/22 03:02:12;;;;;;;;;;;;;;;19.13;39.08;98660.63;3103453;28;114614;-57
2021/01/22 03:03:46;;;;;;;;;;;;;;;19.12;39.02;98667.44;3106488;28;115026;-56
2021/01/22 03:05:20;;;;;;;;;;;;;;;19.10;39.09;98667.78;3102407;27;115570;-56
2021/01/22 03:06:51;;;;;;;;;;;;;;;19.09;39.29;98666.13;3084616;28;116488;-56
2021/01/22 03:08:23;;;;;;;;;;;;;;;19.08;39.13;98670.09;3103292;28;115739;-56
2021/01/22 03:09:58;;;;;;;;;;;;;;;19.07;39.26;98677.69;3098649;28;115833;-56
2021/01/22 03:11:32;;;;;;;;;;;;;;;19.07;39.40;98676.88;3103316;28;115330;-56
2021/01/22 03:13:04;;;;;;;;;;;;;;;19.04;39.41;98671.97;3093733;28;116744;-55
2021/01/22 03:14:36;;;;;;;;;;;;;;;19.04;39.05;98674.78;3103347;28;114457;-56
2021/01/22 03:16:07;;;;;;;;;;;;;;;19.04;39.39;98681.19;3098688;28;114116;-55
2021/01/22 03:17:39;;;;;;;;;;;;;;;19.02;39.30;98677.94;3092937;28;114104;-56
2021/01/22 03:19:11;;;;;;;;;;;;;;;19.03;39.17;98684.34;3100667;28;114649;-55
2021/01/22 03:20:43;;;;;;;;;;;;;;;19.02;39.43;98689.13;3103052;28;114430;-56
2021/01/22 03:22:14;;;;;;;;;;;;;;;19.01;39.18;98684.69;3108208;27;114354;-56
2021/01/22 03:23:47;;;;;;;;;;;;;;;18.99;39.44;98689.81;3106569;27;114039;-56
2021/01/22 03:25:18;;;;;;;;;;;;;;;18.97;39.39;98686.59;3100154;28;115264;-57
2021/01/22 03:26:49;;;;;;;;;;;;;;;18.97;39.40;98686.59;3108841;28;114573;-56
2021/01/22 03:28:20;;;;;;;;;;;;;;;18.97;39.39;98689.38;3109782;28;114213;-56
2021/01/22 03:29:52;;;;;;;;;;;;;;;18.96;39.57;98684.13;3097983;28;114358;-56
2021/01/22 03:31:23;;;;;;;;;;;;;;;18.96;39.55;98692.53;3092613;28;115117;-57
2021/01/22 03:32:54;;;;;;;;;;;;;;;18.96;39.50;98698.13;3104674;28;113984;-66
2021/01/22 03:34:26;;;;;;;;;;;;;;;18.94;39.48;98692.06;3112880;28;114216;-65
2021/01/22 03:35:58;;;;;;;;;;;;;;;18.94;39.44;98692.88;3104533;27;113980;-63
2021/01/22 03:37:29;;;;;;;;;;;;;;;18.92;39.53;98700.00;3105171;28;114375;-62
2021/01/22 03:39:00;;;;;;;;;;;;;;;18.91;39.38;98696.38;3110914;28;114867;-62
2021/01/22 03:40:31;;;;;;;;;;;;;;;18.90;39.43;98699.50;3105601;28;114661;-64
2021/01/22 03:42:03;;;;;;;;;;;;;;;18.90;39.42;98700.34;3102608;28;114227;-64
2021/01/22 03:43:35;;;;;;;;;;;;;;;18.90;39.33;98705.94;3104960;28;114354;-63
2021/01/22 03:45:06;;;;;;;;;;;;;;;18.88;39.47;98705.47;3110814;28;115068;-64
2021/01/22 03:46:37;;;;;;;;;;;;;;;18.86;39.39;98702.22;3099982;28;115116;-62
2021/01/22 03:48:09;;;;;;;;;;;;;;;18.85;39.55;98708.19;3106330;28;114084;-61
2021/01/22 03:49:40;;;;;;;;;;;;;;;18.84;39.48;98707.34;3107962;28;114602;-61
2021/01/22 03:51:13;;;;;;;;;;;;;;;18.83;39.44;98711.31;3107790;28;114151;-61
2021/01/22 03:52:44;;;;;;;;;;;;;;;18.83;39.50;98705.72;3103597;27;115360;-62
2021/01/22 03:54:15;;;;;;;;;;;;;;;18.80;39.50;98714.81;3102972;28;115151;-62
2021/01/22 03:55:50;;;;;;;;;;;;;;;18.79;39.58;98718.78;3114030;28;115067;-64
2021/01/22 03:57:22;;;;;;;;;;;;;;;18.79;39.50;98713.19;3110741;28;116192;-62
2021/01/22 03:58:53;;;;;;;;;;;;;;;18.77;39.51;98721.09;3115672;27;114665;-62
2021/01/22 04:00:24;;;;;;;;;;;;;;;18.77;39.32;98721.09;3107946;27;116035;-63
2021/01/22 04:01:55;;;;;;;;;;;;;;;18.76;39.43;98719.47;3098170;27;114459;-62
2021/01/22 04:03:26;;;;;;;;;;;;;;;18.75;39.48;98723.44;3098177;28;114603;-61
2021/01/22 04:04:58;;;;;;;;;;;;;;;18.75;39.45;98728.22;3110994;27;115726;-62
2021/01/22 04:06:29;;;;;;;;;;;;;;;18.71;39.41;98721.72;3103652;27;116568;-62
2021/01/22 04:08:00;;;;;;;;;;;;;;;18.71;39.42;98722.53;3098205;28;114938;-61
2021/01/22 04:09:32;;;;;;;;;;;;;;;18.72;39.58;98724.13;3097455;28;115892;-63
2021/01/22 04:11:03;;;;;;;;;;;;;;;18.71;39.62;98722.53;3090726;28;114672;-62
2021/01/22 04:12:37;;;;;;;;;;;;;;;18.71;39.55;98735.69;3107699;28;116051;-61
2021/01/22 04:14:09;;;;;;;;;;;;;;;18.69;39.58;98729.63;3110956;28;115274;-63
2021/01/22 04:15:40;;;;;;;;;;;;;;;18.66;39.89;98731.16;3101836;28;118014;-63
2021/01/22 04:17:11;;;;;;;;;;;;;;;18.65;39.71;98730.34;3107601;27;115634;-63
2021/01/22 04:18:42;;;;;;;;;;;;;;;18.65;39.68;98729.50;3107615;28;114307;-63
2021/01/22 04:20:20;;;;;;;;;;;;;;;18.65;39.60;98729.50;3098142;28;114813;-63
2021/01/22 04:21:52;;;;;;;;;;;;;;;18.65;39.70;98732.31;3107897;28;114693;-63
2021/01/22 04:23:23;;;;;;;;;;;;;;;18.64;39.84;98736.25;3101555;27;114021;-63
2021/01/22 04:24:54;;;;;;;;;;;;;;;18.64;39.66;98727.88;3101756;28;114001;-63
2021/01/22 04:26:25;;;;;;;;;;;;;;;18.61;39.69;98731.38;3101812;27;114451;-63
2021/01/22 04:27:56;;;;;;;;;;;;;;;18.61;39.76;98728.59;3106799;28;114042;-63
2021/01/22 04:29:28;;;;;;;;;;;;;;;18.61;39.72;98731.38;3109890;28;114912;-63
2021/01/22 04:30:59;;;;;;;;;;;;;;;18.60;39.75;98730.56;3107978;28;114735;-56
2021/01/22 04:32:30;;;;;;;;;;;;;;;18.58;39.87;98738.47;3111039;28;114258;-58
2021/01/22 04:34:01;;;;;;;;;;;;;;;18.57;39.70;98744.44;3106522;28;114069;-56
2021/01/22 04:35:33;;;;;;;;;;;;;;;18.52;39.78;98747.44;3108026;28;113896;-56
2021/01/22 04:37:04;;;;;;;;;;;;;;;18.53;39.93;98749.09;3109329;27;113868;-56
2021/01/22 04:38:35;;;;;;;;;;;;;;;18.52;39.92;98753.03;3087583;28;114375;-56
2021/01/22 04:40:07;;;;;;;;;;;;;;;18.51;39.84;98752.19;3107586;28;114182;-56
2021/01/22 04:41:38;;;;;;;;;;;;;;;18.49;39.90;98759.28;3108726;28;115553;-56
2021/01/22 04:43:10;;;;;;;;;;;;;;;18.49;40.03;98762.09;3111247;28;114546;-56
2021/01/22 04:44:42;;;;;;;;;;;;;;;18.47;39.94;98751.25;3097808;28;114135;-63
2021/01/22 04:46:15;;;;;;;;;;;;;;;18.47;39.91;98756.03;3109083;27;114534;-63
2021/01/22 04:47:46;;;;;;;;;;;;;;;18.43;39.97;98752.31;3102075;28;114668;-63
2021/01/22 04:49:19;;;;;;;;;;;;;;;18.43;40.01;98757.91;3103426;28;114439;-63
2021/01/22 04:50:52;;;;;;;;;;;;;;;18.42;39.94;98756.25;3104535;27;115693;-63
2021/01/22 04:52:24;;;;;;;;;;;;;;;18.43;39.89;98758.72;3097039;28;114573;-63
2021/01/22 04:53:57;;;;;;;;;;;;;;;18.44;39.85;98757.53;3098104;27;115065;-62
2021/01/22 04:55:29;;;;;;;;;;;;;;;18.47;39.94;98768.03;3106176;28;115457;-62
2021/01/22 04:57:01;;;;;;;;;;;;;;;18.52;39.90;98764.19;3109391;27;115442;-61
2021/01/22 04:58:33;;;;;;;;;;;;;;;18.56;40.12;98756.78;3109644;28;114515;-61
2021/01/22 05:00:04;;;;;;;;;;;;;;;18.60;40.39;98757.72;3097918;28;114426;-62
2021/01/22 05:01:36;;;;;;;;;;;;;;;18.65;40.33;98758.31;3089151;28;115146;-62
2021/01/22 05:03:09;;;;;;;;;;;;;;;18.69;40.46;98764.00;3105804;28;115919;-62
2021/01/22 05:04:40;;;;;;;;;;;;;;;18.74;40.44;98758.19;3103502;27;115725;-62
2021/01/22 05:06:13;;;;;;;;;;;;;;;18.79;40.46;98757.94;3110709;28;116256;-64
2021/01/22 05:07:44;;;;;;;;;;;;;;;18.84;40.59;98754.91;3109964;27;114221;-66
2021/01/22 05:09:16;;;;;;;;;;;;;;;18.90;40.67;98761.88;3103073;27;115879;-66
2021/01/22 05:10:48;;;;;;;;;;;;;;;18.95;40.64;98766.44;3102924;27;114526;-65
2021/01/22 05:12:19;;;;;;;;;;;;;;;19.00;40.59;98769.00;3106070;28;115045;-67
2021/01/22 05:13:51;;;;;;;;;;;;;;;19.06;40.54;98771.22;3100928;28;114427;-67
2021/01/22 05:15:24;;;;;;;;;;;;;;;19.09;40.55;98770.50;3109621;28;115755;-67
2021/01/22 05:17:12;;;;;;;;;;;;;;;19.17;40.42;98771.53;3099108;28;114330;-67
2021/01/22 05:18:44;;;;;;;;;;;;;;;19.24;40.62;98763.38;3086457;28;114842;-65
2021/01/22 05:20:25;;;;;;;;;;;;;;;19.30;40.21;98772.34;3106100;28;114842;-65
2021/01/22 05:21:57;;;;;;;;;;;;;;;19.36;40.10;98768.94;3099126;28;114723;-64
2021/01/22 05:23:32;;;;;;;;;;;;;;;19.42;39.99;98780.72;3100888;28;115843;-64
2021/01/22 05:25:03;;;;;;;;;;;;;;;19.48;40.07;98773.75;3104608;27;114021;-64
2021/01/22 05:26:34;;;;;;;;;;;;;;;19.53;39.69;98771.50;3110089;27;114293;-63
2021/01/22 05:28:05;;;;;;;;;;;;;;;19.60;39.72;98778.47;3109504;28;114103;-62
2021/01/22 05:29:38;;;;;;;;;;;;;;;19.65;40.33;98779.06;3103557;27;113808;-64
2021/01/22 05:31:11;;;;;;;;;;;;;;;19.72;39.86;98782.06;3102636;28;114397;-64
2021/01/22 05:32:43;;;;;;;;;;;;;;;19.78;39.71;98779.81;3107506;27;114061;-63
2021/01/22 05:34:14;;;;;;;;;;;;;;;19.83;39.50;98787.97;3085830;28;114201;-63
2021/01/22 05:35:45;;;;;;;;;;;;;;;19.88;39.40;98785.75;3104859;28;114111;-64
2021/01/22 05:37:18;;;;;;;;;;;;;;;19.94;39.30;98795.50;3098462;28;113882;-65
2021/01/22 05:38:51;;;;;;;;;;;;;;;19.99;39.13;98789.66;3090976;28;113871;-66
2021/01/22 05:40:23;;;;;;;;;;;;;;;20.04;39.16;98790.56;3105408;27;114153;-66
2021/01/22 05:41:54;;;;;;;;;;;;;;;20.08;38.93;98792.28;3111402;28;113811;-66
2021/01/22 05:43:33;;;;;;;;;;;;;;;20.13;38.73;98794.84;3107495;28;113914;-67
2021/01/22 05:45:05;;;;;;;;;;;;;;;20.19;38.55;98796.22;3102213;28;114150;-66
2021/01/22 05:46:36;;;;;;;;;;;;;;;20.23;38.62;98799.09;3107199;27;115141;-65
2021/01/22 05:48:22;;;;;;;;;;;;;;;20.28;38.63;98794.06;3109641;28;115969;-65
2021/01/22 05:49:54;;;;;;;;;;;;;;;20.31;38.62;98801.78;3110643;28;115120;-64
2021/01/22 05:51:31;;;;;;;;;;;;;;;20.36;38.28;98793.09;3109546;27;114147;-64
2021/01/22 05:53:12;;;;;;;;;;;;;;;20.41;38.22;98800.44;3105743;28;115446;-65
2021/01/22 05:54:44;;;;;;;;;;;;;;;20.44;38.10;98802.53;3105308;27;117100;-64
2021/01/22 05:56:17;;;;;;;;;;;;;;;20.49;38.31;98795.84;3095776;28;115308;-65
2021/01/22 05:57:48;;;;;;;;;;;;;;;20.53;38.28;98802.38;3098265;27;114209;-65
2021/01/22 05:59:19;;;;;;;;;;;;;;;20.56;37.96;98799.66;3101767;27;114698;-65
2021/01/22 06:01:02;;;;;;;;;;;;;;;20.60;38.25;98808.16;3115875;27;115166;-65
2021/01/22 06:02:34;;;;;;;;;;;;;;;20.65;37.83;98808.72;3102954;27;114487;-65
2021/01/22 06:04:07;;;;;;;;;;;;;;;20.68;38.06;98816.41;3098427;28;114163;-64
2021/01/22 06:05:51;;;;;;;;;;;;;;;20.71;37.81;98818.50;3108334;28;115358;-64
2021/01/22 06:07:22;;;;;;;;;;;;;;;20.75;37.97;98825.00;3102901;28;114349;-64
2021/01/22 06:08:54;;;;;;;;;;;;;;;20.78;37.63;98826.28;3093197;28;115480;-64
2021/01/22 06:10:26;;;;;;;;;;;;;;;20.82;37.96;98822.38;3095464;28;114680;-64
2021/01/22 06:12:00;;;;;;;;;;;;;;;20.85;37.77;98821.63;3097824;28;114573;-64
2021/01/22 06:13:31;;;;;;;;;;;;;;;20.88;37.87;98824.91;3103473;28;115610;-65
2021/01/22 06:15:03;;;;;;;;;;;;;;;20.92;37.64;98820.19;3108896;28;114414;-63
2021/01/22 06:16:35;;;;;;;;;;;;;;;20.96;38.08;98826.72;3096629;28;114510;-65
2021/01/22 06:18:08;;;;;;;;;;;;;;;20.99;37.73;98820.38;3105749;27;114595;-66
2021/01/22 06:19:40;;;;;;;;;;;;;;;21.03;37.86;98824.09;3096039;28;115891;-66
2021/01/22 06:21:17;;;;;;;;;;;;;;;21.05;37.77;98827.34;3106765;28;115921;-67
2021/01/22 06:23:00;;;;;;;;;;;;;;;21.07;37.67;98834.25;3099428;28;114554;-68
2021/01/22 06:24:32;;;;;;;;;;;;;;;21.10;37.51;98829.88;3098289;28;114358;-68
2021/01/22 06:26:03;;;;;;;;;;;;;;;21.13;37.67;98829.16;3108935;28;114814;-68
2021/01/22 06:27:36;;;;;;;;;;;;;;;21.15;37.76;98830.47;3104903;27;116354;-68
2021/01/22 06:29:09;;;;;;;;;;;;;;;21.18;37.58;98843.75;3110800;28;115032;-69
2021/01/22 06:30:40;;;;;;;;;;;;;;;21.21;37.62;98836.63;3111675;28;114365;-69
2021/01/22 06:32:11;;;;;;;;;;;;;;;21.23;37.39;98846.28;3108394;27;113736;-68
2021/01/22 06:33:44;;;;;;;;;;;;;;;21.27;37.49;98850.00;3106548;28;114006;-68
2021/01/22 06:35:16;;;;;;;;;;;;;;;21.29;37.31;98852.44;3099913;27;113826;-68
2021/01/22 06:36:48;;;;;;;;;;;;;;;21.33;37.22;98855.34;3107602;28;113714;-68
2021/01/22 06:38:21;;;;;;;;;;;;;;;21.35;37.29;98858.63;3101575;28;113870;-69
2021/01/22 06:39:53;;;;;;;;;;;;;;;21.37;37.26;98859.03;3109510;28;114311;-69
2021/01/22 06:41:25;;;;;;;;;;;;;;;21.40;37.47;98861.13;3107381;28;114511;-68
2021/01/22 06:42:56;;;;;;;;;;;;;;;21.43;37.23;98866.03;3107004;28;114242;-68
2021/01/22 06:44:28;;;;;;;;;;;;;;;21.45;37.19;98860.84;3090656;28;114499;-68
2021/01/22 06:46:01;;;;;;;;;;;;;;;21.47;37.10;98856.50;3103809;27;113862;-69
2021/01/22 06:47:32;;;;;;;;;;;;;;;21.50;37.35;98864.19;3110456;28;114072;-68
2021/01/22 06:49:04;;;;;;;;;;;;;;;21.52;37.19;98861.84;3108258;27;114152;-65
2021/01/22 06:50:36;;;;;;;;;;;;;;;21.55;37.51;98865.91;3104025;28;114050;-62
2021/01/22 06:52:10;;;;;;;;;;;;;;;21.57;37.38;98860.75;3117561;28;113979;-62
2021/01/22 06:54:00;;;;;;;;;;;;;;;21.61;37.40;98875.69;3113361;27;115377;-63
2021/01/22 06:55:49;;;;;;;;;;;;;;;21.63;37.16;98867.69;3101279;28;114374;-63
2021/01/22 06:57:21;;;;;;;;;;;;;;;21.66;36.93;98872.59;3102905;27;116722;-63
2021/01/22 06:58:52;;;;;;;;;;;;;;;21.68;36.84;98870.22;3108346;27;115124;-64
2021/01/22 07:00:37;;;;;;;;;;;;;;;21.71;37.17;98875.13;3107264;28;114132;-61
2021/01/22 07:02:27;;;;;;;;;;;;;;;21.73;37.03;98873.56;3111620;27;114094;-61
2021/01/22 07:03:58;;;;;;;;;;;;;;;21.77;36.81;98868.00;3111645;28;115102;-61
2021/01/22 07:05:29;;;;;;;;;;;;;;;21.79;37.03;98876.91;3111210;28;114141;-61
2021/01/22 07:07:04;;;;;;;;;;;;;;;21.81;37.08;98880.16;3112557;27;115267;-61
2021/01/22 07:08:55;;;;;;;;;;;;;;;21.83;36.79;98882.59;3110874;27;114195;-63
2021/01/22 07:10:45;;;;;;;;;;;;;;;21.85;36.93;98886.66;3102368;28;115331;-63
2021/01/22 07:12:28;;;;;;;;;;;;;;;21.85;36.55;98881.03;3112769;28;115114;-62
2021/01/22 07:13:59;;;;;;;;;;;;;;;21.87;36.76;98875.88;3112802;28;116787;-63
2021/01/22 07:15:30;;;;;;;;;;;;;;;21.90;36.62;98888.38;3116132;28;115308;-63
2021/01/22 07:17:02;;;;;;;;;;;;;;;21.92;36.45;98888.84;3111492;28;115737;-63
2021/01/22 07:18:41;;;;;;;;;;;;;;;21.94;36.61;98889.31;3112490;28;116163;-63
2021/01/22 07:20:12;;;;;;;;;;;;;;;21.95;36.53;98886.13;3100266;28;116363;-63
2021/01/22 07:21:44;;;;;;;;;;;;;;;21.98;36.49;98890.22;3112385;28;115759;-63
2021/01/22 07:23:15;;;;;;;;;;;;;;;22.00;36.22;98896.28;3099299;28;115565;-63
2021/01/22 07:24:51;;;;;;;;;;;;;;;22.01;36.28;98893.09;3088138;28;116041;-63
2021/01/22 07:26:42;;;;;;;;;;;;;;;22.04;36.47;98894.34;3095522;28;114544;-63
2021/01/22 07:28:24;;;;;;;;;;;;;;;22.06;36.46;98894.81;3104198;28;115087;-63
2021/01/22 07:30:08;;;;;;;;;;;;;;;22.08;36.10;98895.22;3102629;28;114435;-62
2021/01/22 07:31:48;;;;;;;;;;;;;;;22.09;36.00;98903.31;3094556;28;115044;-62
2021/01/22 07:33:26;;;;;;;;;;;;;;;22.10;36.01;98907.75;3103757;28;114388;-62
2021/01/22 07:34:58;;;;;;;;;;;;;;;22.12;36.11;98915.84;3098325;28;114619;-62
2021/01/22 07:36:29;;;;;;;;;;;;;;;22.13;36.00;98912.63;3101264;28;115777;-62
2021/01/22 07:38:01;;;;;;;;;;;;;;;22.15;36.10;98912.28;3114317;27;114595;-62
2021/01/22 07:39:32;;;;;;;;;;;;;;;22.16;36.27;98922.34;3100556;28;114226;-56
2021/01/22 07:41:07;;;;;;;;;;;;;;;22.17;35.97;98921.97;3110872;28;114164;-55
2021/01/22 07:42:39;;;;;;;;;;;;;;;22.17;36.32;98921.16;3111708;28;114309;-56
2021/01/22 07:44:11;;;;;;;;;;;;;;;22.17;36.45;98924.78;3093272;28;114185;-56
2021/01/22 07:45:42;;;;;;;;;;;;;;;22.17;36.09;98921.16;3105732;27;114230;-55
2021/01/22 07:47:27;;;;;;;;;;;;;;;22.17;36.45;98926.78;3097839;28;114196;-55
2021/01/22 07:49:08;;;;;;;;;;;;;;;22.16;36.27;98933.59;3097084;28;114213;-55
2021/01/22 07:50:39;;;;;;;;;;;;;;;22.14;36.19;98931.16;3111174;28;113825;-55
2021/01/22 07:52:10;;;;;;;;;;;;;;;22.13;36.20;98937.13;3107846;28;113873;-55
2021/01/22 07:53:42;;;;;;;;;;;;;;;22.12;36.12;98936.31;3111101;28;113875;-56
2021/01/22 07:55:15;;;;;;;;;;;;;;;22.13;36.35;98934.31;3110057;27;114329;-55
2021/01/22 07:56:48;;;;;;;;;;;;;;;22.14;36.41;98938.78;3109905;27;114256;-64
2021/01/22 07:58:19;;;;;;;;;;;;;;;22.15;36.17;98946.03;3111494;27;114142;-64